Crescent, Georgia
Current Conditions -  °F | °C
As of 1:15 AM on Wednesday 28 Jan 2015 (Local Time) from KBQK Reporting Station
Clear Clear  
Wind Chill: 41°   Ceiling: Unl
Heat Index: 41°   Visibility: 10mi
Dew Point: 32°   Wind: 3mph
Humidity: 70%   Direction: 280°W
Pressure: 30.08"   Gusts: NA
Location:  31.5°N, 81.36°W
Report Text: KBQK 280615Z AUTO 28003KT 10SM CLR 05/00 A3008 RMK AO1
Loading
Personal Weather Stations






























Interactive Weather Map New forecast layout! Learn more

10-Day Weather Forecast

Advertisements
Track Severe Weather on mobile